Arran, United Kingdom
Current Conditions -  °F | °C
As of 9:50 AM on Friday 19 Dec 2014 (Local Time) from EGPK Reporting Station
Light Rain Light Rain  
Wind Chill: 33°   Ceiling: Unl
Heat Index: 43°   Visibility: 6mi
Dew Point: 36°   Wind: 26mph
Humidity: 76%   Direction: 270°W
Pressure: 29.65"   Gusts: 38mph
Location:  55.58°N, 5.15°W
Report Text: EGPK 190950Z 27023G33KT 9999 -RA FEW010 FEW012CB SCT021 06/02 Q1004
Loading
Personal Weather Stations






























Interactive Weather Map New forecast layout! Learn more

10-Day Weather Forecast

Advertisements
Track Severe Weather on mobile